sensor_id;sensor_type;location;lat;lon;timestamp;P1;durP1;ratioP1;P2;durP2;ratioP2
27746;SDS011;15138;51.012;4.692;2023-07-28T00:00:45;3.25;;;2.20;;
27746;SDS011;15138;51.012;4.692;2023-07-28T00:03:15;3.17;;;1.92;;
27746;SDS011;15138;51.012;4.692;2023-07-28T00:05:43;5.32;;;2.08;;
27746;SDS011;15138;51.012;4.692;2023-07-28T00:08:11;5.07;;;2.38;;
27746;SDS011;15138;51.012;4.692;2023-07-28T00:10:40;4.10;;;2.25;;
27746;SDS011;15138;51.012;4.692;2023-07-28T00:13:08;5.63;;;2.47;;
27746;SDS011;15138;51.012;4.692;2023-07-28T00:15:37;4.85;;;1.90;;
27746;SDS011;15138;51.012;4.692;2023-07-28T00:18:05;6.00;;;2.47;;
27746;SDS011;15138;51.012;4.692;2023-07-28T00:20:35;3.78;;;2.10;;
27746;SDS011;15138;51.012;4.692;2023-07-28T00:23:03;3.45;;;1.75;;
27746;SDS011;15138;51.012;4.692;2023-07-28T00:25:32;3.13;;;1.98;;
27746;SDS011;15138;51.012;4.692;2023-07-28T00:28:00;3.03;;;2.20;;
27746;SDS011;15138;51.012;4.692;2023-07-28T00:30:29;3.90;;;2.30;;
27746;SDS011;15138;51.012;4.692;2023-07-28T00:32:58;7.10;;;2.58;;
27746;SDS011;15138;51.012;4.692;2023-07-28T00:35:27;3.53;;;1.70;;
27746;SDS011;15138;51.012;4.692;2023-07-28T00:37:57;6.68;;;2.15;;
27746;SDS011;15138;51.012;4.692;2023-07-28T00:40:25;2.90;;;1.88;;
27746;SDS011;15138;51.012;4.692;2023-07-28T00:42:54;6.25;;;2.00;;
27746;SDS011;15138;51.012;4.692;2023-07-28T00:45:22;5.40;;;2.30;;
27746;SDS011;15138;51.012;4.692;2023-07-28T00:47:51;3.70;;;2.40;;
27746;SDS011;15138;51.012;4.692;2023-07-28T00:50:19;5.10;;;2.60;;
27746;SDS011;15138;51.012;4.692;2023-07-28T00:52:48;4.32;;;2.60;;
27746;SDS011;15138;51.012;4.692;2023-07-28T00:55:18;2.83;;;2.00;;
27746;SDS011;15138;51.012;4.692;2023-07-28T00:57:46;5.45;;;2.63;;
27746;SDS011;15138;51.012;4.692;2023-07-28T01:00:15;5.65;;;2.55;;
27746;SDS011;15138;51.012;4.692;2023-07-28T01:02:43;3.58;;;2.33;;
27746;SDS011;15138;51.012;4.692;2023-07-28T01:05:12;3.22;;;2.47;;
27746;SDS011;15138;51.012;4.692;2023-07-28T01:07:42;6.10;;;2.70;;
27746;SDS011;15138;51.012;4.692;2023-07-28T01:10:13;5.20;;;2.80;;
27746;SDS011;15138;51.012;4.692;2023-07-28T01:12:44;5.90;;;2.95;;
27746;SDS011;15138;51.012;4.692;2023-07-28T01:15:12;5.88;;;2.70;;
27746;SDS011;15138;51.012;4.692;2023-07-28T01:17:42;4.53;;;2.40;;
27746;SDS011;15138;51.012;4.692;2023-07-28T01:20:10;3.67;;;2.50;;
27746;SDS011;15138;51.012;4.692;2023-07-28T01:25:28;4.93;;;2.60;;
27746;SDS011;15138;51.012;4.692;2023-07-28T01:28:01;3.00;;;2.50;;
27746;SDS011;15138;51.012;4.692;2023-07-28T01:30:31;4.60;;;2.45;;
27746;SDS011;15138;51.012;4.692;2023-07-28T01:32:59;5.20;;;1.73;;
27746;SDS011;15138;51.012;4.692;2023-07-28T01:35:28;3.22;;;2.00;;
27746;SDS011;15138;51.012;4.692;2023-07-28T01:37:56;3.33;;;2.35;;
27746;SDS011;15138;51.012;4.692;2023-07-28T01:40:24;3.65;;;2.17;;
27746;SDS011;15138;51.012;4.692;2023-07-28T01:42:53;3.05;;;2.10;;
27746;SDS011;15138;51.012;4.692;2023-07-28T01:45:23;2.38;;;1.90;;
27746;SDS011;15138;51.012;4.692;2023-07-28T01:47:51;3.63;;;2.33;;
27746;SDS011;15138;51.012;4.692;2023-07-28T01:50:20;2.40;;;1.90;;
27746;SDS011;15138;51.012;4.692;2023-07-28T01:52:48;2.75;;;2.47;;
27746;SDS011;15138;51.012;4.692;2023-07-28T01:55:16;4.05;;;1.98;;
27746;SDS011;15138;51.012;4.692;2023-07-28T01:57:50;3.58;;;2.30;;
27746;SDS011;15138;51.012;4.692;2023-07-28T02:00:19;6.15;;;2.30;;
27746;SDS011;15138;51.012;4.692;2023-07-28T02:02:49;2.97;;;2.60;;
27746;SDS011;15138;51.012;4.692;2023-07-28T02:05:17;4.00;;;2.60;;
27746;SDS011;15138;51.012;4.692;2023-07-28T02:07:46;5.47;;;2.22;;
27746;SDS011;15138;51.012;4.692;2023-07-28T02:10:14;2.60;;;2.40;;
27746;SDS011;15138;51.012;4.692;2023-07-28T02:12:43;4.05;;;1.95;;
27746;SDS011;15138;51.012;4.692;2023-07-28T02:15:11;4.20;;;2.20;;
27746;SDS011;15138;51.012;4.692;2023-07-28T02:17:40;4.20;;;2.25;;
27746;SDS011;15138;51.012;4.692;2023-07-28T02:20:10;2.80;;;2.08;;
27746;SDS011;15138;51.012;4.692;2023-07-28T02:22:39;2.70;;;2.30;;
27746;SDS011;15138;51.012;4.692;2023-07-28T02:25:08;4.10;;;2.33;;
27746;SDS011;15138;51.012;4.692;2023-07-28T02:27:36;3.20;;;2.25;;
27746;SDS011;15138;51.012;4.692;2023-07-28T02:30:05;2.35;;;1.42;;
27746;SDS011;15138;51.012;4.692;2023-07-28T02:32:34;4.60;;;2.40;;
27746;SDS011;15138;51.012;4.692;2023-07-28T02:35:02;4.20;;;2.40;;
27746;SDS011;15138;51.012;4.692;2023-07-28T02:37:32;4.90;;;2.22;;
27746;SDS011;15138;51.012;4.692;2023-07-28T02:40:01;5.75;;;2.10;;
27746;SDS011;15138;51.012;4.692;2023-07-28T02:42:29;2.97;;;2.13;;
27746;SDS011;15138;51.012;4.692;2023-07-28T02:45:00;3.83;;;1.75;;
27746;SDS011;15138;51.012;4.692;2023-07-28T02:47:28;2.22;;;1.67;;
27746;SDS011;15138;51.012;4.692;2023-07-28T02:49:57;4.90;;;2.15;;
27746;SDS011;15138;51.012;4.692;2023-07-28T02:52:25;8.27;;;2.30;;
27746;SDS011;15138;51.012;4.692;2023-07-28T02:54:55;5.97;;;2.50;;
27746;SDS011;15138;51.012;4.692;2023-07-28T02:57:24;6.00;;;2.60;;
27746;SDS011;15138;51.012;4.692;2023-07-28T02:59:52;3.80;;;2.20;;
27746;SDS011;15138;51.012;4.692;2023-07-28T03:02:20;5.43;;;2.92;;
27746;SDS011;15138;51.012;4.692;2023-07-28T03:04:49;5.50;;;2.95;;
27746;SDS011;15138;51.012;4.692;2023-07-28T03:07:17;4.57;;;2.42;;
27746;SDS011;15138;51.012;4.692;2023-07-28T03:09:46;3.63;;;2.80;;
27746;SDS011;15138;51.012;4.692;2023-07-28T03:12:15;7.90;;;3.10;;
27746;SDS011;15138;51.012;4.692;2023-07-28T03:14:44;3.20;;;2.58;;
27746;SDS011;15138;51.012;4.692;2023-07-28T03:17:12;6.13;;;2.70;;
27746;SDS011;15138;51.012;4.692;2023-07-28T03:19:41;4.90;;;2.42;;
27746;SDS011;15138;51.012;4.692;2023-07-28T03:22:09;6.97;;;3.13;;
27746;SDS011;15138;51.012;4.692;2023-07-28T03:24:38;4.50;;;2.75;;
27746;SDS011;15138;51.012;4.692;2023-07-28T03:27:07;4.50;;;2.75;;
27746;SDS011;15138;51.012;4.692;2023-07-28T03:29:37;2.92;;;2.30;;
27746;SDS011;15138;51.012;4.692;2023-07-28T03:32:05;4.40;;;2.40;;
27746;SDS011;15138;51.012;4.692;2023-07-28T03:34:34;5.97;;;2.50;;
27746;SDS011;15138;51.012;4.692;2023-07-28T03:37:02;3.72;;;2.10;;
27746;SDS011;15138;51.012;4.692;2023-07-28T03:39:31;4.22;;;2.45;;
27746;SDS011;15138;51.012;4.692;2023-07-28T03:41:59;7.75;;;2.55;;
27746;SDS011;15138;51.012;4.692;2023-07-28T03:44:28;5.05;;;2.53;;
27746;SDS011;15138;51.012;4.692;2023-07-28T03:46:58;2.92;;;1.98;;
27746;SDS011;15138;51.012;4.692;2023-07-28T03:49:26;7.35;;;2.35;;
27746;SDS011;15138;51.012;4.692;2023-07-28T03:51:54;7.00;;;2.50;;
27746;SDS011;15138;51.012;4.692;2023-07-28T03:54:23;4.38;;;2.10;;
27746;SDS011;15138;51.012;4.692;2023-07-28T03:56:53;6.30;;;2.80;;
27746;SDS011;15138;51.012;4.692;2023-07-28T03:59:21;4.90;;;3.05;;
27746;SDS011;15138;51.012;4.692;2023-07-28T04:01:50;2.95;;;2.05;;
27746;SDS011;15138;51.012;4.692;2023-07-28T04:04:20;4.90;;;3.05;;
27746;SDS011;15138;51.012;4.692;2023-07-28T04:06:49;4.80;;;3.45;;
27746;SDS011;15138;51.012;4.692;2023-07-28T04:09:19;7.40;;;3.80;;
27746;SDS011;15138;51.012;4.692;2023-07-28T04:11:47;6.10;;;4.05;;
27746;SDS011;15138;51.012;4.692;2023-07-28T04:14:16;5.95;;;4.00;;
27746;SDS011;15138;51.012;4.692;2023-07-28T04:16:44;6.53;;;4.38;;
27746;SDS011;15138;51.012;4.692;2023-07-28T04:19:13;8.15;;;4.60;;
27746;SDS011;15138;51.012;4.692;2023-07-28T04:21:42;5.68;;;4.28;;
27746;SDS011;15138;51.012;4.692;2023-07-28T04:24:11;9.93;;;4.97;;
27746;SDS011;15138;51.012;4.692;2023-07-28T04:26:40;7.63;;;5.07;;
27746;SDS011;15138;51.012;4.692;2023-07-28T04:29:09;9.75;;;5.90;;
27746;SDS011;15138;51.012;4.692;2023-07-28T04:31:37;9.18;;;6.18;;
27746;SDS011;15138;51.012;4.692;2023-07-28T04:34:06;11.10;;;6.05;;
27746;SDS011;15138;51.012;4.692;2023-07-28T04:36:35;7.70;;;5.88;;
27746;SDS011;15138;51.012;4.692;2023-07-28T04:39:04;7.93;;;5.03;;
27746;SDS011;15138;51.012;4.692;2023-07-28T04:41:33;8.05;;;4.57;;
27746;SDS011;15138;51.012;4.692;2023-07-28T04:44:01;9.48;;;4.75;;
27746;SDS011;15138;51.012;4.692;2023-07-28T04:46:30;10.23;;;5.30;;
27746;SDS011;15138;51.012;4.692;2023-07-28T04:48:59;6.60;;;4.80;;
27746;SDS011;15138;51.012;4.692;2023-07-28T04:51:29;7.88;;;4.55;;
27746;SDS011;15138;51.012;4.692;2023-07-28T04:53:57;10.82;;;4.45;;
27746;SDS011;15138;51.012;4.692;2023-07-28T04:56:27;10.40;;;4.38;;
27746;SDS011;15138;51.012;4.692;2023-07-28T04:58:55;8.93;;;4.28;;
27746;SDS011;15138;51.012;4.692;2023-07-28T05:01:25;6.18;;;3.53;;
27746;SDS011;15138;51.012;4.692;2023-07-28T05:03:54;10.40;;;4.00;;
27746;SDS011;15138;51.012;4.692;2023-07-28T05:06:22;8.27;;;3.30;;
27746;SDS011;15138;51.012;4.692;2023-07-28T05:08:51;11.23;;;3.45;;
27746;SDS011;15138;51.012;4.692;2023-07-28T05:11:20;6.45;;;3.22;;
27746;SDS011;15138;51.012;4.692;2023-07-28T05:13:50;6.70;;;3.40;;
27746;SDS011;15138;51.012;4.692;2023-07-28T05:16:19;5.03;;;2.53;;
27746;SDS011;15138;51.012;4.692;2023-07-28T05:18:47;4.18;;;2.40;;
27746;SDS011;15138;51.012;4.692;2023-07-28T05:21:16;3.58;;;2.15;;
27746;SDS011;15138;51.012;4.692;2023-07-28T05:23:44;6.00;;;2.65;;
27746;SDS011;15138;51.012;4.692;2023-07-28T05:26:12;3.05;;;2.35;;
27746;SDS011;15138;51.012;4.692;2023-07-28T05:28:41;6.25;;;2.70;;
27746;SDS011;15138;51.012;4.692;2023-07-28T05:31:11;7.95;;;2.75;;
27746;SDS011;15138;51.012;4.692;2023-07-28T05:33:41;4.78;;;2.42;;
27746;SDS011;15138;51.012;4.692;2023-07-28T05:36:10;6.35;;;2.80;;
27746;SDS011;15138;51.012;4.692;2023-07-28T05:38:38;4.18;;;2.60;;
27746;SDS011;15138;51.012;4.692;2023-07-28T05:41:07;6.93;;;2.78;;
27746;SDS011;15138;51.012;4.692;2023-07-28T05:43:35;5.07;;;3.00;;
27746;SDS011;15138;51.012;4.692;2023-07-28T05:46:03;4.43;;;2.70;;
27746;SDS011;15138;51.012;4.692;2023-07-28T05:48:33;5.90;;;2.90;;
27746;SDS011;15138;51.012;4.692;2023-07-28T05:51:02;3.17;;;2.60;;
27746;SDS011;15138;51.012;4.692;2023-07-28T05:53:30;3.17;;;2.40;;
27746;SDS011;15138;51.012;4.692;2023-07-28T05:55:59;4.32;;;2.38;;
27746;SDS011;15138;51.012;4.692;2023-07-28T05:58:27;4.43;;;2.30;;
27746;SDS011;15138;51.012;4.692;2023-07-28T06:00:56;13.80;;;3.00;;
27746;SDS011;15138;51.012;4.692;2023-07-28T06:03:24;6.82;;;2.60;;
27746;SDS011;15138;51.012;4.692;2023-07-28T06:05:56;3.58;;;2.28;;
27746;SDS011;15138;51.012;4.692;2023-07-28T06:08:25;10.07;;;2.17;;
27746;SDS011;15138;51.012;4.692;2023-07-28T06:10:53;4.18;;;2.13;;
27746;SDS011;15138;51.012;4.692;2023-07-28T06:13:22;4.47;;;1.70;;
27746;SDS011;15138;51.012;4.692;2023-07-28T06:15:52;4.53;;;1.90;;
27746;SDS011;15138;51.012;4.692;2023-07-28T06:18:22;4.30;;;1.77;;
27746;SDS011;15138;51.012;4.692;2023-07-28T06:20:51;3.45;;;1.63;;
27746;SDS011;15138;51.012;4.692;2023-07-28T06:23:20;2.17;;;1.20;;
27746;SDS011;15138;51.012;4.692;2023-07-28T06:25:49;4.40;;;1.15;;
27746;SDS011;15138;51.012;4.692;2023-07-28T06:28:17;1.40;;;1.10;;
27746;SDS011;15138;51.012;4.692;2023-07-28T06:30:46;1.70;;;1.25;;
27746;SDS011;15138;51.012;4.692;2023-07-28T06:33:15;2.03;;;0.77;;
27746;SDS011;15138;51.012;4.692;2023-07-28T06:35:43;0.90;;;0.70;;
27746;SDS011;15138;51.012;4.692;2023-07-28T06:38:11;4.18;;;0.80;;
27746;SDS011;15138;51.012;4.692;2023-07-28T06:40:41;1.60;;;0.85;;
27746;SDS011;15138;51.012;4.692;2023-07-28T06:43:10;1.10;;;0.70;;
27746;SDS011;15138;51.012;4.692;2023-07-28T06:45:39;2.25;;;0.60;;
27746;SDS011;15138;51.012;4.692;2023-07-28T06:48:07;1.95;;;0.80;;
27746;SDS011;15138;51.012;4.692;2023-07-28T06:50:35;2.35;;;0.70;;
27746;SDS011;15138;51.012;4.692;2023-07-28T06:53:04;2.55;;;0.70;;
27746;SDS011;15138;51.012;4.692;2023-07-28T06:55:32;1.58;;;0.70;;
27746;SDS011;15138;51.012;4.692;2023-07-28T06:58:03;1.50;;;0.68;;
27746;SDS011;15138;51.012;4.692;2023-07-28T07:00:31;2.28;;;0.60;;
27746;SDS011;15138;51.012;4.692;2023-07-28T07:03:00;2.33;;;0.55;;
27746;SDS011;15138;51.012;4.692;2023-07-28T07:05:28;0.50;;;0.50;;
27746;SDS011;15138;51.012;4.692;2023-07-28T07:07:57;0.55;;;0.50;;
27746;SDS011;15138;51.012;4.692;2023-07-28T07:10:27;3.70;;;0.80;;
27746;SDS011;15138;51.012;4.692;2023-07-28T07:12:56;0.52;;;0.50;;
27746;SDS011;15138;51.012;4.692;2023-07-28T07:15:26;0.40;;;0.40;;
27746;SDS011;15138;51.012;4.692;2023-07-28T07:17:55;2.45;;;0.50;;
27746;SDS011;15138;51.012;4.692;2023-07-28T07:20:23;1.13;;;0.60;;
27746;SDS011;15138;51.012;4.692;2023-07-28T07:22:52;0.65;;;0.50;;
27746;SDS011;15138;51.012;4.692;2023-07-28T07:25:23;0.50;;;0.50;;
27746;SDS011;15138;51.012;4.692;2023-07-28T07:27:51;0.90;;;0.55;;
27746;SDS011;15138;51.012;4.692;2023-07-28T07:30:20;0.40;;;0.40;;
27746;SDS011;15138;51.012;4.692;2023-07-28T07:32:50;2.40;;;0.50;;
27746;SDS011;15138;51.012;4.692;2023-07-28T07:35:18;0.88;;;0.60;;
27746;SDS011;15138;51.012;4.692;2023-07-28T07:37:47;0.82;;;0.40;;
27746;SDS011;15138;51.012;4.692;2023-07-28T07:40:15;0.50;;;0.50;;
27746;SDS011;15138;51.012;4.692;2023-07-28T07:42:45;0.90;;;0.47;;
27746;SDS011;15138;51.012;4.692;2023-07-28T07:45:14;0.40;;;0.40;;
27746;SDS011;15138;51.012;4.692;2023-07-28T07:47:42;2.10;;;0.90;;
27746;SDS011;15138;51.012;4.692;2023-07-28T07:50:12;0.80;;;0.50;;
27746;SDS011;15138;51.012;4.692;2023-07-28T07:52:40;0.50;;;0.40;;
27746;SDS011;15138;51.012;4.692;2023-07-28T07:55:09;0.52;;;0.50;;
27746;SDS011;15138;51.012;4.692;2023-07-28T07:57:38;1.27;;;0.55;;
27746;SDS011;15138;51.012;4.692;2023-07-28T08:00:07;1.30;;;0.70;;
27746;SDS011;15138;51.012;4.692;2023-07-28T08:02:37;0.65;;;0.40;;
27746;SDS011;15138;51.012;4.692;2023-07-28T08:05:08;1.23;;;0.50;;
27746;SDS011;15138;51.012;4.692;2023-07-28T08:07:38;2.05;;;0.60;;
27746;SDS011;15138;51.012;4.692;2023-07-28T08:10:07;1.10;;;0.60;;
27746;SDS011;15138;51.012;4.692;2023-07-28T08:12:35;0.40;;;0.40;;
27746;SDS011;15138;51.012;4.692;2023-07-28T08:15:04;4.40;;;0.70;;
27746;SDS011;15138;51.012;4.692;2023-07-28T08:17:33;1.02;;;0.55;;
27746;SDS011;15138;51.012;4.692;2023-07-28T08:20:01;1.85;;;0.60;;
27746;SDS011;15138;51.012;4.692;2023-07-28T08:22:31;0.98;;;0.60;;
27746;SDS011;15138;51.012;4.692;2023-07-28T08:25:01;3.00;;;0.80;;
27746;SDS011;15138;51.012;4.692;2023-07-28T08:27:30;0.70;;;0.55;;
27746;SDS011;15138;51.012;4.692;2023-07-28T08:29:59;0.82;;;0.55;;
27746;SDS011;15138;51.012;4.692;2023-07-28T08:32:27;1.00;;;0.60;;
27746;SDS011;15138;51.012;4.692;2023-07-28T08:34:56;1.63;;;0.80;;
27746;SDS011;15138;51.012;4.692;2023-07-28T08:37:24;0.90;;;0.70;;
27746;SDS011;15138;51.012;4.692;2023-07-28T08:39:52;1.33;;;0.57;;
27746;SDS011;15138;51.012;4.692;2023-07-28T08:42:22;1.13;;;0.80;;
27746;SDS011;15138;51.012;4.692;2023-07-28T08:44:51;1.77;;;0.60;;
27746;SDS011;15138;51.012;4.692;2023-07-28T08:47:19;1.48;;;0.60;;
27746;SDS011;15138;51.012;4.692;2023-07-28T08:49:48;0.88;;;0.65;;
27746;SDS011;15138;51.012;4.692;2023-07-28T08:52:16;2.85;;;0.77;;
27746;SDS011;15138;51.012;4.692;2023-07-28T08:54:45;1.25;;;0.77;;
27746;SDS011;15138;51.012;4.692;2023-07-28T08:57:13;2.58;;;0.65;;
27746;SDS011;15138;51.012;4.692;2023-07-28T08:59:43;0.68;;;0.60;;
27746;SDS011;15138;51.012;4.692;2023-07-28T09:02:14;1.38;;;0.85;;
27746;SDS011;15138;51.012;4.692;2023-07-28T09:04:43;1.50;;;0.68;;
27746;SDS011;15138;51.012;4.692;2023-07-28T09:07:11;1.05;;;0.60;;
27746;SDS011;15138;51.012;4.692;2023-07-28T09:09:41;2.30;;;0.75;;
27746;SDS011;15138;51.012;4.692;2023-07-28T09:12:09;1.63;;;0.63;;
27746;SDS011;15138;51.012;4.692;2023-07-28T09:14:38;1.25;;;0.80;;
27746;SDS011;15138;51.012;4.692;2023-07-28T09:17:08;1.35;;;0.70;;
27746;SDS011;15138;51.012;4.692;2023-07-28T09:19:50;1.23;;;0.60;;
27746;SDS011;15138;51.012;4.692;2023-07-28T09:22:19;1.13;;;0.70;;
27746;SDS011;15138;51.012;4.692;2023-07-28T09:24:47;2.13;;;0.80;;
27746;SDS011;15138;51.012;4.692;2023-07-28T09:27:19;2.05;;;0.60;;
27746;SDS011;15138;51.012;4.692;2023-07-28T09:29:48;1.85;;;0.70;;
27746;SDS011;15138;51.012;4.692;2023-07-28T09:32:25;0.52;;;0.50;;
27746;SDS011;15138;51.012;4.692;2023-07-28T09:35:05;0.47;;;0.32;;
27746;SDS011;15138;51.012;4.692;2023-07-28T09:37:37;1.17;;;0.43;;
27746;SDS011;15138;51.012;4.692;2023-07-28T09:40:07;2.13;;;0.32;;
27746;SDS011;15138;51.012;4.692;2023-07-28T09:42:38;1.73;;;0.50;;
27746;SDS011;15138;51.012;4.692;2023-07-28T09:45:07;1.58;;;0.60;;
27746;SDS011;15138;51.012;4.692;2023-07-28T09:47:50;1.27;;;0.45;;
27746;SDS011;15138;51.012;4.692;2023-07-28T09:50:21;1.10;;;0.40;;
27746;SDS011;15138;51.012;4.692;2023-07-28T09:52:53;0.65;;;0.40;;
27746;SDS011;15138;51.012;4.692;2023-07-28T09:55:21;1.30;;;0.45;;
27746;SDS011;15138;51.012;4.692;2023-07-28T09:57:51;3.25;;;0.40;;
27746;SDS011;15138;51.012;4.692;2023-07-28T10:00:20;0.93;;;0.45;;
27746;SDS011;15138;51.012;4.692;2023-07-28T10:02:50;1.13;;;0.40;;
27746;SDS011;15138;51.012;4.692;2023-07-28T10:05:19;0.60;;;0.32;;
27746;SDS011;15138;51.012;4.692;2023-07-28T10:07:48;1.05;;;0.45;;
27746;SDS011;15138;51.012;4.692;2023-07-28T10:10:17;3.42;;;0.50;;
27746;SDS011;15138;51.012;4.692;2023-07-28T10:12:46;0.52;;;0.40;;
27746;SDS011;15138;51.012;4.692;2023-07-28T10:15:15;2.83;;;0.60;;
27746;SDS011;15138;51.012;4.692;2023-07-28T10:17:44;1.10;;;0.70;;
27746;SDS011;15138;51.012;4.692;2023-07-28T10:20:35;2.92;;;0.50;;
27746;SDS011;15138;51.012;4.692;2023-07-28T10:23:05;2.10;;;0.50;;
27746;SDS011;15138;51.012;4.692;2023-07-28T10:25:35;2.70;;;0.52;;
27746;SDS011;15138;51.012;4.692;2023-07-28T10:28:04;1.25;;;0.60;;
27746;SDS011;15138;51.012;4.692;2023-07-28T10:30:36;1.25;;;0.75;;
27746;SDS011;15138;51.012;4.692;2023-07-28T10:33:06;1.60;;;0.70;;
27746;SDS011;15138;51.012;4.692;2023-07-28T10:35:37;1.05;;;0.65;;
27746;SDS011;15138;51.012;4.692;2023-07-28T10:38:31;1.40;;;0.60;;
27746;SDS011;15138;51.012;4.692;2023-07-28T10:43:29;3.75;;;0.73;;
27746;SDS011;15138;51.012;4.692;2023-07-28T10:45:58;2.00;;;0.80;;
27746;SDS011;15138;51.012;4.692;2023-07-28T10:48:27;2.20;;;0.90;;
27746;SDS011;15138;51.012;4.692;2023-07-28T10:50:57;1.45;;;0.75;;
27746;SDS011;15138;51.012;4.692;2023-07-28T10:53:31;1.83;;;0.95;;
27746;SDS011;15138;51.012;4.692;2023-07-28T10:56:00;2.58;;;1.25;;
27746;SDS011;15138;51.012;4.692;2023-07-28T10:58:28;1.52;;;1.00;;
27746;SDS011;15138;51.012;4.692;2023-07-28T11:00:57;1.63;;;1.20;;
27746;SDS011;15138;51.012;4.692;2023-07-28T11:03:25;2.03;;;1.02;;
27746;SDS011;15138;51.012;4.692;2023-07-28T11:05:57;2.42;;;1.15;;
27746;SDS011;15138;51.012;4.692;2023-07-28T11:08:26;2.30;;;1.38;;
27746;SDS011;15138;51.012;4.692;2023-07-28T11:10:54;2.00;;;1.40;;
27746;SDS011;15138;51.012;4.692;2023-07-28T11:13:23;3.17;;;1.45;;
27746;SDS011;15138;51.012;4.692;2023-07-28T11:16:06;3.42;;;1.40;;
27746;SDS011;15138;51.012;4.692;2023-07-28T11:18:37;2.22;;;1.15;;
27746;SDS011;15138;51.012;4.692;2023-07-28T11:21:07;3.45;;;1.15;;
27746;SDS011;15138;51.012;4.692;2023-07-28T11:23:35;5.63;;;1.15;;
27746;SDS011;15138;51.012;4.692;2023-07-28T11:26:05;4.20;;;0.98;;
27746;SDS011;15138;51.012;4.692;2023-07-28T11:28:38;1.60;;;0.80;;
27746;SDS011;15138;51.012;4.692;2023-07-28T11:31:06;1.40;;;0.75;;
27746;SDS011;15138;51.012;4.692;2023-07-28T11:33:36;0.52;;;0.45;;
27746;SDS011;15138;51.012;4.692;2023-07-28T11:36:06;2.40;;;0.60;;
27746;SDS011;15138;51.012;4.692;2023-07-28T11:38:34;1.42;;;0.57;;
27746;SDS011;15138;51.012;4.692;2023-07-28T11:41:03;0.77;;;0.60;;
27746;SDS011;15138;51.012;4.692;2023-07-28T11:43:33;0.77;;;0.60;;
27746;SDS011;15138;51.012;4.692;2023-07-28T11:46:02;1.65;;;0.45;;
27746;SDS011;15138;51.012;4.692;2023-07-28T11:48:30;2.65;;;0.70;;
27746;SDS011;15138;51.012;4.692;2023-07-28T11:50:59;1.70;;;0.60;;
27746;SDS011;15138;51.012;4.692;2023-07-28T11:53:29;1.67;;;0.75;;
27746;SDS011;15138;51.012;4.692;2023-07-28T11:56:00;5.38;;;0.70;;
27746;SDS011;15138;51.012;4.692;2023-07-28T11:58:30;2.42;;;0.57;;
27746;SDS011;15138;51.012;4.692;2023-07-28T12:00:58;2.53;;;0.77;;
27746;SDS011;15138;51.012;4.692;2023-07-28T12:03:29;1.00;;;0.80;;
27746;SDS011;15138;51.012;4.692;2023-07-28T12:05:59;2.58;;;1.20;;
27746;SDS011;15138;51.012;4.692;2023-07-28T12:08:35;5.20;;;1.75;;
27746;SDS011;15138;51.012;4.692;2023-07-28T12:11:03;2.13;;;1.92;;
27746;SDS011;15138;51.012;4.692;2023-07-28T12:13:46;1.60;;;1.50;;
27746;SDS011;15138;51.012;4.692;2023-07-28T12:16:31;1.85;;;1.40;;
27746;SDS011;15138;51.012;4.692;2023-07-28T12:19:02;1.80;;;1.70;;
27746;SDS011;15138;51.012;4.692;2023-07-28T12:21:31;1.88;;;1.45;;
27746;SDS011;15138;51.012;4.692;2023-07-28T12:24:01;3.05;;;1.50;;
27746;SDS011;15138;51.012;4.692;2023-07-28T12:26:32;3.60;;;1.45;;
27746;SDS011;15138;51.012;4.692;2023-07-28T12:29:05;1.40;;;1.30;;
27746;SDS011;15138;51.012;4.692;2023-07-28T12:31:37;3.53;;;1.40;;
27746;SDS011;15138;51.012;4.692;2023-07-28T12:34:08;2.13;;;1.40;;
27746;SDS011;15138;51.012;4.692;2023-07-28T12:36:37;2.15;;;1.48;;
27746;SDS011;15138;51.012;4.692;2023-07-28T12:39:11;3.47;;;1.40;;
27746;SDS011;15138;51.012;4.692;2023-07-28T12:41:42;2.00;;;1.67;;
27746;SDS011;15138;51.012;4.692;2023-07-28T12:44:30;4.15;;;1.70;;
27746;SDS011;15138;51.012;4.692;2023-07-28T12:47:02;2.08;;;1.60;;
27746;SDS011;15138;51.012;4.692;2023-07-28T12:49:32;1.73;;;1.27;;
27746;SDS011;15138;51.012;4.692;2023-07-28T12:52:03;2.03;;;1.55;;
27746;SDS011;15138;51.012;4.692;2023-07-28T12:54:34;3.55;;;1.60;;
27746;SDS011;15138;51.012;4.692;2023-07-28T12:57:07;3.05;;;1.50;;
27746;SDS011;15138;51.012;4.692;2023-07-28T12:59:39;1.35;;;1.20;;
27746;SDS011;15138;51.012;4.692;2023-07-28T13:02:10;1.35;;;1.20;;
27746;SDS011;15138;51.012;4.692;2023-07-28T13:04:38;1.52;;;1.20;;
27746;SDS011;15138;51.012;4.692;2023-07-28T13:07:07;1.65;;;1.20;;
27746;SDS011;15138;51.012;4.692;2023-07-28T13:09:39;1.20;;;1.00;;
27746;SDS011;15138;51.012;4.692;2023-07-28T13:12:08;2.83;;;1.23;;
27746;SDS011;15138;51.012;4.692;2023-07-28T13:14:39;2.08;;;0.95;;
27746;SDS011;15138;51.012;4.692;2023-07-28T13:17:07;1.95;;;1.10;;
27746;SDS011;15138;51.012;4.692;2023-07-28T13:19:38;3.90;;;1.15;;
27746;SDS011;15138;51.012;4.692;2023-07-28T13:22:07;1.23;;;1.10;;
27746;SDS011;15138;51.012;4.692;2023-07-28T13:24:36;3.85;;;1.17;;
27746;SDS011;15138;51.012;4.692;2023-07-28T13:27:07;2.47;;;1.30;;
27746;SDS011;15138;51.012;4.692;2023-07-28T13:29:35;2.53;;;1.10;;
27746;SDS011;15138;51.012;4.692;2023-07-28T13:32:04;1.73;;;0.98;;
27746;SDS011;15138;51.012;4.692;2023-07-28T13:34:43;1.58;;;1.20;;
27746;SDS011;15138;51.012;4.692;2023-07-28T13:37:11;2.15;;;1.20;;
27746;SDS011;15138;51.012;4.692;2023-07-28T13:39:42;2.17;;;0.90;;
27746;SDS011;15138;51.012;4.692;2023-07-28T13:42:10;4.97;;;1.25;;
27746;SDS011;15138;51.012;4.692;2023-07-28T13:44:42;1.75;;;1.00;;
27746;SDS011;15138;51.012;4.692;2023-07-28T13:47:23;6.40;;;1.30;;
27746;SDS011;15138;51.012;4.692;2023-07-28T13:49:51;1.70;;;1.00;;
27746;SDS011;15138;51.012;4.692;2023-07-28T13:52:19;2.00;;;1.20;;
27746;SDS011;15138;51.012;4.692;2023-07-28T13:54:49;4.65;;;1.20;;
27746;SDS011;15138;51.012;4.692;2023-07-28T13:57:20;2.33;;;1.20;;
27746;SDS011;15138;51.012;4.692;2023-07-28T13:59:48;3.05;;;1.35;;
27746;SDS011;15138;51.012;4.692;2023-07-28T14:02:17;1.35;;;1.15;;
27746;SDS011;15138;51.012;4.692;2023-07-28T14:04:45;1.58;;;1.20;;
27746;SDS011;15138;51.012;4.692;2023-07-28T14:07:13;3.15;;;1.02;;
27746;SDS011;15138;51.012;4.692;2023-07-28T14:09:42;4.63;;;1.10;;
27746;SDS011;15138;51.012;4.692;2023-07-28T14:12:11;1.73;;;1.02;;
27746;SDS011;15138;51.012;4.692;2023-07-28T14:14:39;2.08;;;1.10;;
27746;SDS011;15138;51.012;4.692;2023-07-28T14:17:07;1.55;;;1.00;;
27746;SDS011;15138;51.012;4.692;2023-07-28T14:19:37;1.13;;;0.90;;
27746;SDS011;15138;51.012;4.692;2023-07-28T14:22:06;1.65;;;1.00;;
27746;SDS011;15138;51.012;4.692;2023-07-28T14:24:35;1.30;;;1.10;;
27746;SDS011;15138;51.012;4.692;2023-07-28T14:27:03;3.53;;;1.05;;
27746;SDS011;15138;51.012;4.692;2023-07-28T14:29:33;1.70;;;1.05;;
27746;SDS011;15138;51.012;4.692;2023-07-28T14:32:01;1.45;;;0.82;;
27746;SDS011;15138;51.012;4.692;2023-07-28T14:34:29;3.20;;;0.90;;
27746;SDS011;15138;51.012;4.692;2023-07-28T14:36:58;2.33;;;1.17;;
27746;SDS011;15138;51.012;4.692;2023-07-28T14:39:28;3.78;;;1.13;;
27746;SDS011;15138;51.012;4.692;2023-07-28T14:41:56;4.68;;;1.10;;
27746;SDS011;15138;51.012;4.692;2023-07-28T14:44:24;4.28;;;1.05;;
27746;SDS011;15138;51.012;4.692;2023-07-28T14:46:54;2.03;;;1.10;;
27746;SDS011;15138;51.012;4.692;2023-07-28T14:49:22;1.13;;;0.82;;
27746;SDS011;15138;51.012;4.692;2023-07-28T14:51:54;3.63;;;1.00;;
27746;SDS011;15138;51.012;4.692;2023-07-28T14:54:22;1.52;;;1.00;;
27746;SDS011;15138;51.012;4.692;2023-07-28T14:56:50;2.33;;;1.10;;
27746;SDS011;15138;51.012;4.692;2023-07-28T14:59:18;4.32;;;0.98;;
27746;SDS011;15138;51.012;4.692;2023-07-28T15:01:46;1.15;;;1.00;;
27746;SDS011;15138;51.012;4.692;2023-07-28T15:04:16;1.23;;;0.85;;
27746;SDS011;15138;51.012;4.692;2023-07-28T15:06:44;1.90;;;0.90;;